Time;durP1;ratioP1;P1;durP2;ratioP2;P2;SDS_P1;SDS_P2;PMS_P1;PMS_P2;Temp;Humidity;BMP_temperature;BMP_pressure;BME280_temperature;BME280_humidity;BME280_pressure;Samples;Min_cycle;Max_cycle;Signal;HPM_P1;HPM_P2
2022/04/02 00:02:07;;;;;;;0.20;0.20;;;2.00;99.90;;;;;;4997660;28;20752;-67
2022/04/02 00:04:35;;;;;;;0.20;0.20;;;2.00;99.90;;;;;;4995334;28;20792;-67
2022/04/02 00:07:03;;;;;;;0.20;0.20;;;2.00;99.90;;;;;;4976012;28;20639;-66
2022/04/02 00:09:30;;;;;;;0.20;0.20;;;2.00;99.90;;;;;;4983323;28;20644;-66
2022/04/02 00:11:56;;;;;;;0.20;0.20;;;2.00;99.90;;;;;;4981287;28;20628;-67
2022/04/02 00:14:23;;;;;;;0.20;0.20;;;2.00;99.90;;;;;;4985567;28;20755;-67
2022/04/02 00:16:50;;;;;;;0.20;0.20;;;2.00;99.90;;;;;;4980369;28;20694;-67
2022/04/02 00:19:17;;;;;;;0.20;0.20;;;2.00;99.90;;;;;;4975860;28;20730;-67
2022/04/02 00:21:46;;;;;;;0.20;0.20;;;1.90;99.90;;;;;;4995364;28;20729;-67
2022/04/02 00:24:13;;;;;;;0.20;0.20;;;1.90;99.90;;;;;;4997329;28;20679;-67
2022/04/02 00:26:39;;;;;;;0.20;0.20;;;2.00;99.90;;;;;;4975033;28;20692;-66
2022/04/02 00:29:10;;;;;;;0.20;0.20;;;2.00;99.90;;;;;;4976013;28;20632;-66
2022/04/02 00:31:36;;;;;;;0.20;0.20;;;1.90;99.90;;;;;;4997191;28;20622;-66
2022/04/02 00:34:03;;;;;;;0.30;0.30;;;1.90;99.90;;;;;;4994344;28;20683;-67
2022/04/02 00:36:34;;;;;;;0.20;0.20;;;1.90;99.90;;;;;;4978035;28;20648;-67
2022/04/02 00:39:02;;;;;;;0.20;0.20;;;1.90;99.90;;;;;;4984939;28;21185;-66
2022/04/02 00:41:29;;;;;;;0.20;0.20;;;1.90;99.90;;;;;;4982627;28;20663;-66
2022/04/02 00:43:58;;;;;;;0.20;0.20;;;1.90;99.90;;;;;;4975484;28;20752;-66
2022/04/02 00:46:26;;;;;;;0.20;0.20;;;1.90;99.90;;;;;;4975870;28;20629;-66
2022/04/02 00:48:54;;;;;;;0.20;0.20;;;1.80;99.90;;;;;;4973393;28;20636;-66
2022/04/02 00:51:22;;;;;;;0.20;0.20;;;1.80;99.90;;;;;;4977372;28;20707;-66
2022/04/02 00:53:51;;;;;;;0.30;0.30;;;1.80;99.90;;;;;;4977599;28;20652;-66
2022/04/02 00:56:21;;;;;;;0.20;0.20;;;1.80;99.90;;;;;;4983591;28;20616;-66
2022/04/02 00:58:48;;;;;;;0.20;0.20;;;1.80;99.90;;;;;;4989783;28;20633;-67
2022/04/02 01:01:17;;;;;;;0.30;0.30;;;1.80;99.90;;;;;;4982510;28;20631;-67
2022/04/02 01:03:48;;;;;;;0.20;0.20;;;1.80;99.90;;;;;;4998999;28;20716;-66
2022/04/02 01:06:18;;;;;;;0.20;0.20;;;1.80;99.90;;;;;;4984861;28;20631;-67
2022/04/02 01:08:45;;;;;;;0.20;0.20;;;1.70;99.90;;;;;;4991286;28;20732;-66
2022/04/02 01:11:12;;;;;;;0.30;0.30;;;1.80;99.90;;;;;;4993189;28;20623;-66
2022/04/02 01:13:46;;;;;;;0.20;0.20;;;1.70;99.90;;;;;;4995173;28;20715;-66
2022/04/02 01:16:13;;;;;;;0.20;0.20;;;1.70;99.90;;;;;;4984523;28;20667;-66
2022/04/02 01:18:43;;;;;;;0.20;0.20;;;1.70;99.90;;;;;;4977929;28;20635;-66
2022/04/02 01:21:15;;;;;;;0.20;0.20;;;1.70;99.90;;;;;;4980700;28;20624;-66
2022/04/02 01:23:48;;;;;;;0.20;0.20;;;1.70;99.90;;;;;;4988366;28;20764;-66
2022/04/02 01:26:19;;;;;;;0.20;0.20;;;1.70;99.90;;;;;;4983004;28;20629;-66
2022/04/02 01:28:53;;;;;;;0.20;0.20;;;1.70;99.90;;;;;;4994831;28;20632;-66
2022/04/02 01:31:25;;;;;;;0.20;0.20;;;1.70;99.90;;;;;;4980630;28;20617;-67
2022/04/02 01:33:53;;;;;;;0.20;0.20;;;1.60;99.90;;;;;;4995107;28;20668;-67
2022/04/02 01:36:21;;;;;;;0.20;0.20;;;1.60;99.90;;;;;;4975471;28;20613;-68
2022/04/02 01:38:59;;;;;;;0.20;0.20;;;1.60;99.90;;;;;;4973216;28;20631;-66
2022/04/02 01:41:29;;;;;;;0.20;0.20;;;1.60;99.90;;;;;;4983222;28;20635;-67
2022/04/02 01:43:56;;;;;;;0.20;0.20;;;1.60;99.90;;;;;;4974499;28;20657;-67
2022/04/02 01:46:24;;;;;;;0.20;0.20;;;1.50;99.90;;;;;;4980795;28;20620;-67
2022/04/02 01:48:53;;;;;;;0.20;0.20;;;1.60;99.90;;;;;;4984777;28;20736;-67
2022/04/02 01:51:21;;;;;;;0.20;0.20;;;1.50;99.90;;;;;;4984376;28;20628;-66
2022/04/02 01:53:48;;;;;;;0.30;0.30;;;1.50;99.90;;;;;;4987649;28;20664;-67
2022/04/02 01:56:17;;;;;;;0.20;0.20;;;1.50;99.90;;;;;;4976190;28;20626;-67
2022/04/02 01:58:48;;;;;;;0.20;0.20;;;1.40;99.90;;;;;;4994092;28;20621;-67
2022/04/02 02:01:21;;;;;;;0.20;0.20;;;1.50;99.90;;;;;;4976702;28;20628;-66
2022/04/02 02:03:48;;;;;;;0.30;0.30;;;1.40;99.90;;;;;;4976419;28;20784;-67
2022/04/02 02:06:15;;;;;;;0.27;0.27;;;1.40;99.90;;;;;;4983415;28;20628;-66
2022/04/02 02:08:45;;;;;;;0.20;0.20;;;1.40;99.90;;;;;;4989405;28;21037;-66
2022/04/02 02:11:34;;;;;;;0.20;0.20;;;1.40;99.90;;;;;;4979146;28;20624;-67
2022/04/02 02:14:28;;;;;;;0.20;0.20;;;1.40;99.90;;;;;;4982054;28;20658;-67
2022/04/02 02:17:05;;;;;;;0.20;0.20;;;1.30;99.90;;;;;;4996384;28;20672;-68
2022/04/02 02:19:32;;;;;;;0.20;0.20;;;1.30;99.90;;;;;;4977285;28;20722;-67
2022/04/02 02:21:59;;;;;;;0.20;0.20;;;1.30;99.90;;;;;;4982615;28;20652;-67
2022/04/02 02:24:26;;;;;;;0.20;0.20;;;1.30;99.90;;;;;;4977471;28;21327;-66
2022/04/02 02:26:55;;;;;;;0.23;0.23;;;1.30;99.90;;;;;;4969243;28;20633;-67
2022/04/02 02:29:31;;;;;;;0.20;0.20;;;1.30;99.90;;;;;;4983218;28;20652;-68
2022/04/02 02:32:02;;;;;;;0.20;0.20;;;1.20;99.90;;;;;;4998564;28;20621;-67
2022/04/02 02:37:13;;;;;;;0.30;0.30;;;1.20;99.90;;;;;;4979564;28;20655;-66
2022/04/02 02:39:50;;;;;;;0.20;0.20;;;1.20;99.90;;;;;;4984693;28;21215;-67
2022/04/02 02:42:23;;;;;;;0.30;0.30;;;1.10;99.90;;;;;;4983866;28;20727;-67
2022/04/02 02:44:58;;;;;;;0.30;0.30;;;1.10;99.90;;;;;;4998197;28;20664;-67
2022/04/02 02:47:28;;;;;;;0.20;0.20;;;1.10;99.90;;;;;;4977884;28;20758;-67
2022/04/02 02:49:56;;;;;;;0.20;0.20;;;1.10;99.90;;;;;;4994076;28;20699;-67
2022/04/02 02:52:28;;;;;;;0.30;0.30;;;1.10;99.90;;;;;;4986541;28;21156;-67
2022/04/02 02:54:57;;;;;;;0.20;0.20;;;1.10;99.90;;;;;;5001749;28;20624;-67
2022/04/02 02:57:27;;;;;;;0.20;0.20;;;1.10;99.90;;;;;;4975375;28;20650;-67
2022/04/02 02:59:54;;;;;;;0.30;0.30;;;1.10;99.90;;;;;;4981461;28;20627;-67
2022/04/02 03:02:21;;;;;;;0.20;0.20;;;1.10;99.90;;;;;;4994916;28;20609;-67
2022/04/02 03:04:53;;;;;;;0.20;0.20;;;1.10;99.90;;;;;;4981708;28;20661;-67
2022/04/02 03:07:36;;;;;;;0.30;0.30;;;1.00;99.90;;;;;;4986393;28;20714;-67
2022/04/02 03:10:06;;;;;;;0.20;0.20;;;1.00;99.90;;;;;;4986020;28;20663;-67
2022/04/02 03:12:34;;;;;;;0.20;0.20;;;1.10;99.90;;;;;;4994845;28;20636;-67
2022/04/02 03:15:02;;;;;;;0.20;0.20;;;1.00;99.90;;;;;;4977328;28;20634;-67
2022/04/02 03:17:31;;;;;;;0.20;0.20;;;1.00;99.90;;;;;;4994678;28;20648;-67
2022/04/02 03:20:00;;;;;;;0.20;0.20;;;1.00;99.90;;;;;;4998641;28;21196;-69
2022/04/02 03:22:29;;;;;;;0.20;0.20;;;1.00;99.90;;;;;;4995631;28;21231;-68
2022/04/02 03:24:56;;;;;;;0.20;0.20;;;1.00;99.90;;;;;;4984018;28;20652;-67
2022/04/02 03:27:25;;;;;;;0.30;0.30;;;1.00;99.90;;;;;;4984752;28;20617;-67
2022/04/02 03:29:55;;;;;;;0.30;0.30;;;1.00;99.90;;;;;;5002128;28;20640;-68
2022/04/02 03:32:22;;;;;;;0.20;0.20;;;1.00;99.90;;;;;;4992370;28;20633;-67
2022/04/02 03:34:51;;;;;;;0.27;0.27;;;0.90;99.90;;;;;;4985048;28;20627;-68
2022/04/02 03:37:18;;;;;;;0.20;0.20;;;0.90;99.90;;;;;;4996930;28;20632;-67
2022/04/02 03:39:45;;;;;;;0.20;0.20;;;0.90;99.90;;;;;;4981457;28;20627;-67
2022/04/02 03:42:13;;;;;;;0.20;0.20;;;0.90;99.90;;;;;;4989636;28;20621;-67
2022/04/02 03:44:41;;;;;;;0.20;0.20;;;0.90;99.90;;;;;;4991753;28;20675;-68
2022/04/02 03:47:10;;;;;;;0.20;0.20;;;0.90;99.90;;;;;;4978437;28;20658;-67
2022/04/02 03:49:48;;;;;;;0.20;0.20;;;0.90;99.90;;;;;;4981680;28;20628;-67
2022/04/02 03:52:19;;;;;;;0.20;0.20;;;0.90;99.90;;;;;;4985205;28;21227;-67
2022/04/02 03:54:51;;;;;;;0.20;0.20;;;0.90;99.90;;;;;;4991914;28;20667;-68
2022/04/02 03:57:19;;;;;;;0.20;0.20;;;0.90;99.90;;;;;;4985737;28;20652;-67
2022/04/02 03:59:49;;;;;;;0.30;0.30;;;0.90;99.90;;;;;;4997765;28;20201;-67
2022/04/02 04:02:21;;;;;;;0.20;0.20;;;0.90;99.90;;;;;;4991369;28;20626;-67
2022/04/02 04:04:49;;;;;;;0.20;0.20;;;0.90;99.90;;;;;;4996864;28;20716;-67
2022/04/02 04:07:17;;;;;;;0.30;0.30;;;0.90;99.90;;;;;;4998416;28;21052;-67
2022/04/02 04:09:44;;;;;;;0.20;0.20;;;0.90;99.90;;;;;;4992294;28;21217;-67
2022/04/02 04:12:14;;;;;;;0.20;0.20;;;0.90;99.90;;;;;;4975497;28;20621;-67
2022/04/02 04:14:45;;;;;;;0.20;0.20;;;0.90;99.90;;;;;;4990282;28;21016;-67
2022/04/02 04:17:13;;;;;;;0.30;0.30;;;0.90;99.90;;;;;;4984876;28;20616;-67
2022/04/02 04:19:41;;;;;;;0.20;0.20;;;0.90;99.90;;;;;;4992575;28;20670;-67
2022/04/02 04:22:10;;;;;;;0.20;0.20;;;0.90;99.90;;;;;;4980558;28;20643;-67
2022/04/02 04:24:37;;;;;;;0.20;0.20;;;0.90;99.90;;;;;;4991304;28;20667;-67
2022/04/02 04:27:05;;;;;;;0.20;0.20;;;0.90;99.90;;;;;;4975943;28;20633;-67
2022/04/02 04:29:34;;;;;;;0.20;0.20;;;0.80;99.90;;;;;;4998630;28;20650;-67
2022/04/02 04:32:01;;;;;;;0.20;0.20;;;0.80;99.90;;;;;;5000452;28;20216;-67
2022/04/02 04:34:28;;;;;;;0.20;0.20;;;0.90;99.90;;;;;;4975718;28;20225;-67
2022/04/02 04:36:56;;;;;;;0.20;0.20;;;0.80;99.90;;;;;;4981630;28;20239;-67
2022/04/02 04:39:25;;;;;;;0.30;0.30;;;0.80;99.90;;;;;;4993746;28;20617;-67
2022/04/02 04:41:55;;;;;;;0.20;0.20;;;0.80;99.90;;;;;;4975237;28;20644;-68
2022/04/02 04:44:27;;;;;;;0.30;0.30;;;0.80;99.90;;;;;;4979413;28;20287;-67
2022/04/02 04:46:55;;;;;;;0.20;0.20;;;0.80;99.90;;;;;;4987089;28;20689;-67
2022/04/02 04:49:22;;;;;;;0.20;0.20;;;0.80;99.90;;;;;;4993894;28;20635;-67
2022/04/02 04:51:58;;;;;;;0.20;0.20;;;0.80;99.90;;;;;;4990897;28;20719;-68
2022/04/02 04:54:26;;;;;;;0.20;0.20;;;0.80;99.90;;;;;;4973434;28;20660;-67
2022/04/02 04:56:52;;;;;;;0.30;0.30;;;0.70;99.90;;;;;;4988364;28;20629;-69
2022/04/02 04:59:23;;;;;;;0.23;0.23;;;0.70;99.90;;;;;;4977748;28;21212;-68
2022/04/02 05:01:52;;;;;;;0.30;0.30;;;0.70;99.90;;;;;;4971537;28;20633;-68
2022/04/02 05:04:20;;;;;;;0.20;0.20;;;0.70;99.90;;;;;;4983192;28;20664;-67
2022/04/02 05:06:50;;;;;;;0.20;0.20;;;0.70;99.90;;;;;;4989577;28;20748;-68
2022/04/02 05:09:21;;;;;;;0.30;0.30;;;0.70;99.90;;;;;;4983997;28;20651;-67
2022/04/02 05:11:50;;;;;;;0.20;0.20;;;0.70;99.90;;;;;;4992064;28;20686;-67
2022/04/02 05:14:19;;;;;;;0.20;0.20;;;0.70;99.90;;;;;;4977198;28;20787;-67
2022/04/02 05:16:52;;;;;;;0.20;0.20;;;0.70;99.90;;;;;;4996252;28;20279;-67
2022/04/02 05:19:20;;;;;;;0.20;0.20;;;0.70;99.90;;;;;;4973323;28;20636;-68
2022/04/02 05:21:50;;;;;;;0.23;0.23;;;0.70;99.90;;;;;;4996075;28;20206;-67
2022/04/02 05:24:18;;;;;;;0.20;0.20;;;0.70;99.90;;;;;;4996864;28;20660;-67
2022/04/02 05:26:50;;;;;;;0.20;0.20;;;0.70;99.90;;;;;;4983142;28;20656;-67
2022/04/02 05:29:18;;;;;;;0.20;0.20;;;0.70;99.90;;;;;;4995781;28;20251;-67
2022/04/02 05:31:46;;;;;;;0.20;0.20;;;0.70;99.90;;;;;;4997451;28;20630;-68
2022/04/02 05:34:13;;;;;;;0.20;0.20;;;0.70;99.90;;;;;;4979842;28;20272;-67
2022/04/02 05:36:43;;;;;;;0.30;0.30;;;0.80;99.90;;;;;;4986741;28;20608;-67
2022/04/02 05:39:09;;;;;;;0.20;0.20;;;0.80;99.90;;;;;;4981333;28;20248;-68
2022/04/02 05:41:37;;;;;;;0.30;0.30;;;0.80;99.90;;;;;;4986136;28;20628;-68
2022/04/02 05:44:07;;;;;;;0.20;0.20;;;0.80;99.90;;;;;;4982020;28;20663;-67
2022/04/02 05:46:34;;;;;;;0.20;0.20;;;0.80;99.90;;;;;;4980584;28;21519;-67
2022/04/02 05:49:01;;;;;;;0.30;0.30;;;0.90;99.90;;;;;;4982816;28;20690;-67
2022/04/02 05:51:28;;;;;;;0.30;0.30;;;0.90;99.90;;;;;;4999021;28;20205;-67
2022/04/02 05:53:55;;;;;;;0.20;0.20;;;0.90;99.90;;;;;;4982922;28;20665;-68
2022/04/02 05:56:22;;;;;;;0.20;0.20;;;1.00;99.90;;;;;;4983793;28;20546;-67
2022/04/02 05:58:50;;;;;;;0.20;0.20;;;1.00;99.90;;;;;;4983134;28;20636;-68
2022/04/02 06:01:19;;;;;;;0.30;0.30;;;1.00;99.90;;;;;;4979750;28;20604;-68
2022/04/02 06:03:47;;;;;;;0.20;0.20;;;1.10;99.90;;;;;;4999914;28;20668;-67
2022/04/02 06:06:14;;;;;;;0.20;0.20;;;1.10;99.90;;;;;;4987654;28;20718;-67
2022/04/02 06:08:41;;;;;;;0.20;0.20;;;1.10;99.90;;;;;;5001284;28;20636;-67
2022/04/02 06:11:08;;;;;;;0.20;0.20;;;1.20;99.90;;;;;;4987313;28;20636;-67
2022/04/02 06:13:35;;;;;;;0.20;0.20;;;1.20;99.90;;;;;;4985639;28;20229;-68
2022/04/02 06:16:02;;;;;;;0.27;0.27;;;1.30;99.90;;;;;;4986587;28;20670;-68
2022/04/02 06:18:30;;;;;;;0.20;0.20;;;1.30;99.90;;;;;;5000976;28;20632;-67
2022/04/02 06:21:02;;;;;;;0.30;0.30;;;1.40;99.90;;;;;;4986790;28;20628;-67
2022/04/02 06:23:29;;;;;;;0.20;0.20;;;1.40;99.90;;;;;;4984072;28;20644;-67
2022/04/02 06:25:55;;;;;;;0.30;0.30;;;1.50;99.90;;;;;;4985874;28;20692;-67
2022/04/02 06:28:22;;;;;;;0.20;0.20;;;1.60;99.90;;;;;;4986637;28;20628;-68
2022/04/02 06:30:50;;;;;;;0.30;0.30;;;1.60;99.90;;;;;;4989180;28;20612;-67
2022/04/02 06:33:18;;;;;;;0.20;0.20;;;1.70;99.90;;;;;;4985474;28;20659;-67
2022/04/02 06:35:46;;;;;;;0.20;0.20;;;1.70;99.90;;;;;;5001576;28;20631;-67
2022/04/02 06:38:16;;;;;;;0.20;0.20;;;1.70;99.90;;;;;;5000868;28;20628;-68
2022/04/02 06:40:43;;;;;;;0.20;0.20;;;1.80;99.90;;;;;;4984677;28;20630;-67
2022/04/02 06:43:10;;;;;;;0.20;0.20;;;1.80;99.90;;;;;;4987312;28;20690;-67
2022/04/02 06:45:55;;;;;;;0.20;0.20;;;1.90;99.90;;;;;;4999872;28;20657;-67
2022/04/02 06:48:23;;;;;;;0.20;0.20;;;1.90;99.90;;;;;;4985555;28;20624;-67
2022/04/02 06:50:52;;;;;;;0.20;0.20;;;2.00;99.90;;;;;;4987451;28;20647;-67
2022/04/02 06:53:19;;;;;;;0.20;0.20;;;2.00;99.90;;;;;;4986401;28;20656;-68
2022/04/02 06:55:46;;;;;;;0.20;0.20;;;2.10;99.90;;;;;;4984641;28;20640;-68
2022/04/02 06:58:23;;;;;;;0.20;0.20;;;2.10;99.90;;;;;;4985352;28;20620;-67
2022/04/02 07:00:51;;;;;;;0.20;0.20;;;2.10;99.90;;;;;;5001774;28;20627;-67
2022/04/02 07:03:17;;;;;;;0.20;0.20;;;2.20;99.90;;;;;;4984558;28;21258;-68
2022/04/02 07:05:44;;;;;;;0.20;0.20;;;2.30;99.90;;;;;;4984969;28;20648;-68
2022/04/02 07:08:12;;;;;;;0.20;0.20;;;2.30;99.90;;;;;;4985734;28;20624;-67
2022/04/02 07:10:39;;;;;;;0.20;0.20;;;2.40;99.90;;;;;;4983324;28;20631;-67
2022/04/02 07:13:06;;;;;;;0.20;0.20;;;2.40;99.90;;;;;;4982097;28;20636;-68
2022/04/02 07:15:33;;;;;;;0.20;0.20;;;2.50;99.90;;;;;;4997304;28;20630;-67
2022/04/02 07:18:07;;;;;;;0.20;0.20;;;2.60;99.90;;;;;;4982367;28;21209;-68
2022/04/02 07:20:36;;;;;;;0.20;0.20;;;2.80;99.90;;;;;;4983850;28;20682;-68
2022/04/02 07:23:04;;;;;;;0.20;0.20;;;2.90;99.90;;;;;;4984960;28;20652;-68
2022/04/02 07:25:36;;;;;;;0.20;0.20;;;3.10;99.90;;;;;;4985608;28;20742;-68
2022/04/02 07:28:05;;;;;;;0.20;0.20;;;3.20;99.90;;;;;;4984449;28;20632;-67
2022/04/02 07:30:33;;;;;;;0.20;0.20;;;3.50;99.90;;;;;;4983808;28;20621;-68
2022/04/02 07:33:00;;;;;;;0.20;0.20;;;3.60;99.90;;;;;;4986545;28;20671;-67
2022/04/02 07:35:34;;;;;;;0.20;0.20;;;4.00;99.90;;;;;;4985680;28;20664;-67
2022/04/02 07:38:04;;;;;;;0.20;0.20;;;4.10;99.90;;;;;;4984568;28;20636;-68
2022/04/02 07:40:50;;;;;;;0.20;0.20;;;4.40;99.90;;;;;;4986950;28;20655;-67
2022/04/02 07:43:27;;;;;;;0.20;0.20;;;4.50;99.90;;;;;;4983063;28;20682;-67
2022/04/02 07:46:04;;;;;;;0.23;0.23;;;4.60;99.90;;;;;;4990875;28;20759;-66
2022/04/02 07:48:37;;;;;;;0.20;0.20;;;4.60;99.90;;;;;;4985032;28;20624;-67
2022/04/02 07:51:10;;;;;;;0.30;0.30;;;4.50;99.90;;;;;;4985198;28;20621;-67
2022/04/02 07:53:44;;;;;;;0.30;0.30;;;4.50;99.90;;;;;;5000976;28;20656;-67
2022/04/02 07:56:17;;;;;;;0.20;0.20;;;4.40;99.90;;;;;;4999069;28;20632;-67
2022/04/02 07:58:48;;;;;;;0.23;0.23;;;4.50;99.90;;;;;;5004297;28;20623;-67
2022/04/02 08:01:19;;;;;;;0.20;0.20;;;4.40;99.90;;;;;;4980616;28;20652;-67
2022/04/02 08:03:48;;;;;;;0.30;0.30;;;4.60;99.90;;;;;;4982284;28;20645;-67
2022/04/02 08:06:16;;;;;;;0.20;0.20;;;4.80;99.90;;;;;;4985405;28;20712;-68
2022/04/02 08:08:45;;;;;;;0.20;0.20;;;4.90;99.90;;;;;;4995495;28;20720;-67
2022/04/02 08:11:13;;;;;;;0.20;0.20;;;4.80;99.90;;;;;;4979852;28;20632;-66
2022/04/02 08:13:44;;;;;;;0.30;0.30;;;4.60;99.90;;;;;;5001533;28;20706;-67
2022/04/02 08:16:11;;;;;;;0.20;0.20;;;4.40;99.90;;;;;;4986485;28;20690;-67
2022/04/02 08:18:40;;;;;;;0.13;0.13;;;4.30;99.90;;;;;;4995470;28;20646;-67
2022/04/02 08:21:08;;;;;;;0.20;0.20;;;4.30;99.90;;;;;;4979396;28;20616;-67
2022/04/02 08:23:37;;;;;;;0.20;0.20;;;4.20;99.90;;;;;;4982232;28;20659;-66
2022/04/02 08:26:18;;;;;;;0.20;0.20;;;4.30;99.90;;;;;;4983288;28;20648;-67
2022/04/02 08:29:02;;;;;;;0.20;0.20;;;4.30;99.90;;;;;;4996800;28;20672;-68
2022/04/02 08:31:42;;;;;;;0.20;0.20;;;4.50;99.90;;;;;;4986173;28;20679;-68
2022/04/02 08:34:17;;;;;;;0.17;0.17;;;4.60;99.90;;;;;;4995152;28;20660;-67
2022/04/02 08:36:52;;;;;;;0.20;0.20;;;4.70;99.90;;;;;;4979147;28;20611;-68
2022/04/02 08:39:27;;;;;;;0.20;0.20;;;4.70;99.90;;;;;;4980278;28;20658;-68
2022/04/02 08:42:36;;;;;;;0.20;0.20;;;4.90;99.90;;;;;;4975883;28;20616;-68
2022/04/02 08:45:09;;;;;;;0.20;0.20;;;5.20;99.90;;;;;;4986299;28;20614;-68
2022/04/02 08:48:21;;;;;;;0.20;0.20;;;5.20;99.90;;;;;;5001060;28;20668;-68
2022/04/02 08:50:54;;;;;;;0.20;0.20;;;5.00;99.90;;;;;;4985761;28;20667;-67
2022/04/02 08:53:27;;;;;;;0.20;0.20;;;5.00;99.90;;;;;;4981906;28;20648;-67
2022/04/02 08:56:01;;;;;;;0.20;0.20;;;5.30;99.90;;;;;;4998783;28;20632;-67
2022/04/02 08:58:56;;;;;;;0.20;0.20;;;5.20;99.90;;;;;;4986647;28;20609;-67
2022/04/02 09:01:25;;;;;;;0.30;0.30;;;5.30;99.90;;;;;;4975699;28;20620;-68
2022/04/02 09:04:43;;;;;;;0.20;0.20;;;5.40;99.90;;;;;;4980919;28;20636;-67
2022/04/02 09:07:39;;;;;;;0.20;0.20;;;5.40;99.90;;;;;;4982608;28;20662;-67
2022/04/02 09:10:40;;;;;;;0.20;0.20;;;5.30;99.90;;;;;;4990550;28;20620;-67
2022/04/02 09:13:46;;;;;;;0.20;0.20;;;5.30;99.90;;;;;;4984417;28;20663;-68
2022/04/02 09:16:23;;;;;;;0.20;0.20;;;5.20;99.90;;;;;;4994288;28;20625;-67
2022/04/02 09:19:11;;;;;;;0.20;0.20;;;5.20;99.90;;;;;;4972965;28;20617;-67
2022/04/02 09:21:54;;;;;;;0.20;0.20;;;5.10;99.90;;;;;;4978743;28;20711;-67
2022/04/02 09:24:40;;;;;;;0.20;0.20;;;5.20;99.90;;;;;;4977140;28;20648;-67
2022/04/02 09:27:40;;;;;;;0.20;0.20;;;5.20;99.90;;;;;;4990927;28;20771;-67
2022/04/02 09:30:19;;;;;;;0.20;0.20;;;5.30;99.90;;;;;;4981159;28;20707;-67
2022/04/02 09:33:15;;;;;;;0.20;0.20;;;5.50;99.90;;;;;;4976139;28;20648;-67
2022/04/02 09:36:08;;;;;;;0.10;0.10;;;5.50;99.90;;;;;;4984620;28;20616;-68
2022/04/02 09:39:06;;;;;;;0.20;0.20;;;5.40;99.90;;;;;;4999893;28;20632;-67
2022/04/02 09:41:51;;;;;;;0.20;0.20;;;5.20;99.90;;;;;;4987532;28;20679;-67
2022/04/02 09:44:37;;;;;;;0.20;0.20;;;5.10;99.90;;;;;;4984687;28;20652;-68
2022/04/02 09:47:11;;;;;;;0.20;0.20;;;5.20;99.90;;;;;;4986197;28;20756;-67
2022/04/02 09:49:50;;;;;;;0.20;0.20;;;5.40;99.90;;;;;;4984674;28;20607;-67
2022/04/02 09:52:22;;;;;;;0.10;0.10;;;5.50;99.90;;;;;;4985527;28;20678;-67
2022/04/02 09:54:57;;;;;;;0.20;0.20;;;5.60;99.90;;;;;;4988533;28;20644;-68
2022/04/02 09:57:34;;;;;;;0.10;0.10;;;5.60;99.90;;;;;;4983314;28;20631;-67
2022/04/02 10:00:06;;;;;;;0.20;0.20;;;5.60;99.90;;;;;;4985406;28;20612;-67
2022/04/02 10:03:00;;;;;;;0.20;0.20;;;5.70;99.90;;;;;;4986983;28;20615;-67
2022/04/02 10:05:36;;;;;;;0.10;0.10;;;5.60;99.90;;;;;;4987235;28;20622;-66
2022/04/02 10:08:06;;;;;;;0.10;0.10;;;5.60;99.90;;;;;;4980455;28;20660;-68
2022/04/02 10:10:33;;;;;;;0.10;0.10;;;5.50;99.90;;;;;;4997702;28;20631;-68
2022/04/02 10:13:03;;;;;;;0.10;0.10;;;5.50;99.90;;;;;;4987612;28;20640;-67
2022/04/02 10:15:32;;;;;;;0.10;0.10;;;5.30;99.90;;;;;;4990365;28;20629;-67
2022/04/02 10:18:04;;;;;;;0.20;0.20;;;5.40;99.90;;;;;;4988082;28;20636;-67
2022/04/02 10:20:33;;;;;;;0.20;0.20;;;5.40;99.90;;;;;;4984976;28;20733;-67
2022/04/02 10:23:08;;;;;;;0.20;0.20;;;5.30;99.90;;;;;;4985022;28;20651;-67
2022/04/02 10:25:47;;;;;;;0.20;0.20;;;5.20;99.90;;;;;;5000293;28;20686;-67
2022/04/02 10:28:18;;;;;;;0.10;0.10;;;5.10;99.90;;;;;;4980596;28;20648;-67
2022/04/02 10:30:48;;;;;;;0.20;0.20;;;5.00;99.90;;;;;;4987425;28;20627;-68
2022/04/02 10:33:29;;;;;;;0.20;0.20;;;5.10;99.90;;;;;;4981469;28;20656;-67
2022/04/02 10:35:57;;;;;;;0.20;0.20;;;5.10;99.90;;;;;;4985665;28;21022;-67
2022/04/02 10:38:34;;;;;;;0.20;0.20;;;5.20;99.90;;;;;;4984786;28;20655;-67
2022/04/02 10:41:05;;;;;;;0.20;0.20;;;5.20;99.90;;;;;;4985013;28;20636;-68
2022/04/02 10:43:37;;;;;;;0.20;0.20;;;5.20;99.90;;;;;;4986384;28;20663;-67
2022/04/02 10:46:07;;;;;;;0.20;0.20;;;5.30;99.90;;;;;;4984399;28;20616;-67
2022/04/02 10:48:49;;;;;;;0.10;0.10;;;5.40;99.90;;;;;;5003119;28;20763;-67
2022/04/02 10:51:19;;;;;;;0.20;0.20;;;5.50;99.90;;;;;;4984426;28;20656;-67
2022/04/02 10:53:46;;;;;;;0.20;0.20;;;5.50;99.90;;;;;;4998955;28;20656;-67
2022/04/02 10:56:17;;;;;;;0.10;0.10;;;5.30;99.90;;;;;;4986737;28;20781;-67
2022/04/02 10:58:48;;;;;;;0.20;0.20;;;5.30;99.90;;;;;;4982804;28;20719;-67
2022/04/02 11:01:18;;;;;;;0.10;0.10;;;5.20;99.90;;;;;;4981659;28;20616;-67
2022/04/02 11:03:55;;;;;;;0.10;0.10;;;5.00;99.90;;;;;;5000937;28;20668;-67
2022/04/02 11:06:44;;;;;;;0.10;0.10;;;5.00;99.90;;;;;;4984502;28;20638;-67
2022/04/02 11:09:29;;;;;;;0.20;0.20;;;5.00;99.90;;;;;;4999958;28;20632;-67
2022/04/02 11:11:59;;;;;;;0.20;0.20;;;4.80;99.90;;;;;;5001490;28;20635;-67
2022/04/02 11:14:25;;;;;;;0.20;0.20;;;4.70;99.90;;;;;;4983833;28;20660;-67
2022/04/02 11:16:53;;;;;;;0.20;0.20;;;4.80;99.90;;;;;;4983864;28;20620;-67
2022/04/02 11:22:21;;;;;;;0.10;0.10;;;5.00;99.90;;;;;;4994044;28;20625;-67
2022/04/02 11:24:57;;;;;;;0.20;0.20;;;5.10;99.90;;;;;;4981441;28;20686;-67
2022/04/02 11:27:28;;;;;;;0.20;0.20;;;5.30;99.90;;;;;;4985024;28;20656;-67
2022/04/02 11:30:02;;;;;;;0.20;0.20;;;5.50;99.90;;;;;;4999586;28;21146;-67
2022/04/02 11:32:36;;;;;;;0.20;0.20;;;5.70;99.90;;;;;;4981735;28;20675;-67
2022/04/02 11:35:08;;;;;;;0.10;0.10;;;5.80;99.90;;;;;;5000655;28;20636;-67
2022/04/02 11:37:44;;;;;;;0.20;0.20;;;5.80;99.90;;;;;;4978391;28;20648;-68
2022/04/02 11:40:15;;;;;;;0.10;0.10;;;5.70;99.90;;;;;;4983761;28;20631;-67
2022/04/02 11:42:47;;;;;;;0.10;0.10;;;5.70;99.90;;;;;;4983375;28;20625;-67
2022/04/02 11:45:18;;;;;;;0.20;0.20;;;5.60;99.90;;;;;;4984545;28;20621;-67
2022/04/02 11:47:48;;;;;;;0.10;0.10;;;5.60;99.90;;;;;;4981709;28;20765;-67
2022/04/02 11:50:26;;;;;;;0.20;0.20;;;5.60;99.90;;;;;;4985144;28;20672;-67
2022/04/02 11:52:54;;;;;;;0.10;0.10;;;5.60;99.90;;;;;;4987552;28;20651;-67
2022/04/02 11:55:22;;;;;;;0.20;0.20;;;5.50;99.90;;;;;;4982415;28;20641;-67
2022/04/02 11:58:00;;;;;;;0.10;0.10;;;5.50;99.90;;;;;;4975832;28;20613;-67
2022/04/02 12:00:29;;;;;;;0.20;0.20;;;5.40;99.90;;;;;;4983305;28;20628;-67
2022/04/02 12:02:58;;;;;;;0.10;0.10;;;5.40;99.90;;;;;;4983840;28;20687;-67
2022/04/02 12:05:37;;;;;;;0.10;0.10;;;5.30;99.90;;;;;;4985419;28;20665;-67
2022/04/02 12:08:05;;;;;;;0.10;0.10;;;5.30;99.90;;;;;;5002210;28;20664;-67
2022/04/02 12:10:36;;;;;;;0.20;0.20;;;5.30;99.90;;;;;;4975236;28;20747;-67
2022/04/02 12:13:08;;;;;;;0.10;0.10;;;5.20;99.90;;;;;;4983944;28;20652;-67
2022/04/02 12:15:36;;;;;;;0.10;0.10;;;5.20;99.90;;;;;;4980245;28;20619;-67
2022/04/02 12:18:06;;;;;;;0.10;0.10;;;5.20;99.90;;;;;;4977799;28;20636;-67
2022/04/02 12:20:36;;;;;;;0.10;0.10;;;5.20;99.90;;;;;;4977327;28;20619;-67
2022/04/02 12:23:12;;;;;;;0.10;0.10;;;5.20;99.90;;;;;;4980758;28;20648;-67
2022/04/02 12:25:39;;;;;;;0.20;0.20;;;5.20;99.90;;;;;;4997133;28;20699;-68
2022/04/02 12:28:12;;;;;;;0.10;0.10;;;5.20;99.90;;;;;;4983544;28;21339;-67
2022/04/02 12:30:43;;;;;;;0.10;0.10;;;5.30;99.90;;;;;;4982490;28;20748;-67
2022/04/02 12:33:14;;;;;;;0.10;0.10;;;5.20;99.90;;;;;;4980841;28;20662;-67
2022/04/02 12:35:46;;;;;;;0.20;0.20;;;5.20;99.90;;;;;;4981745;28;20631;-67
2022/04/02 12:38:25;;;;;;;0.20;0.20;;;5.20;99.90;;;;;;4999600;28;20744;-67
2022/04/02 12:40:52;;;;;;;0.10;0.10;;;5.10;99.90;;;;;;4989656;28;20633;-68
2022/04/02 12:43:26;;;;;;;0.20;0.20;;;5.00;99.90;;;;;;4983016;28;20718;-68
2022/04/02 12:45:53;;;;;;;0.20;0.20;;;5.00;99.90;;;;;;4999240;28;20649;-67
2022/04/02 12:48:20;;;;;;;0.20;0.20;;;5.00;99.90;;;;;;4979747;28;20675;-67
2022/04/02 12:50:54;;;;;;;0.17;0.17;;;5.00;99.90;;;;;;4993777;28;20621;-68
2022/04/02 12:53:30;;;;;;;0.20;0.20;;;5.00;99.90;;;;;;4994993;28;20659;-67
2022/04/02 12:55:57;;;;;;;0.10;0.10;;;5.00;99.90;;;;;;4999377;28;20638;-67
2022/04/02 12:58:32;;;;;;;0.10;0.10;;;5.10;99.90;;;;;;4979480;28;20623;-67
2022/04/02 13:01:09;;;;;;;0.10;0.10;;;5.20;99.90;;;;;;4983757;28;20695;-67
2022/04/02 13:03:45;;;;;;;0.20;0.20;;;5.40;99.90;;;;;;4977205;28;20650;-67
2022/04/02 13:06:20;;;;;;;0.13;0.13;;;5.60;99.90;;;;;;4986372;28;20616;-67
2022/04/02 13:08:56;;;;;;;0.20;0.20;;;5.70;99.90;;;;;;4979028;28;20707;-68
2022/04/02 13:11:44;;;;;;;0.20;0.20;;;6.00;99.90;;;;;;4993455;28;20982;-67
2022/04/02 13:14:18;;;;;;;0.20;0.20;;;6.10;99.90;;;;;;4995454;28;20656;-67
2022/04/02 13:16:46;;;;;;;0.10;0.10;;;6.00;99.90;;;;;;4991860;28;20769;-68
2022/04/02 13:22:05;;;;;;;0.10;0.10;;;6.00;99.90;;;;;;4976184;28;20777;-67
2022/04/02 13:25:02;;;;;;;0.10;0.10;;;6.00;99.90;;;;;;4977684;28;20664;-67
2022/04/02 13:28:12;;;;;;;0.17;0.17;;;5.90;99.90;;;;;;4928299;28;20727;-67
2022/04/02 13:30:42;;;;;;;0.20;0.20;;;6.00;99.90;;;;;;4981646;28;20627;-67
2022/04/02 13:33:57;;;;;;;0.20;0.20;;;6.10;99.90;;;;;;4986010;28;20632;-68